Time;durP1;ratioP1;P1;durP2;ratioP2;P2;SDS_P1;SDS_P2;PMS_P1;PMS_P2;Temp;Humidity;BMP_temperature;BMP_pressure;BME280_temperature;BME280_humidity;BME280_pressure;Samples;Min_cycle;Max_cycle;Signal;HPM_P1;HPM_P2
2021/04/10 00:03:35;;;;;;;21.15;11.00;;;6.20;99.90;;;;;;12359185;28;20460;-42
2021/04/10 00:09:36;;;;;;;16.38;10.00;;;6.20;99.90;;;;;;12361277;28;20158;-42
2021/04/10 00:15:38;;;;;;;16.35;9.18;;;6.10;99.90;;;;;;12365016;28;20127;-42
2021/04/10 00:21:39;;;;;;;18.20;9.93;;;6.10;99.90;;;;;;12362464;28;20081;-42
2021/04/10 00:27:41;;;;;;;18.67;8.50;;;6.10;99.90;;;;;;12358260;28;20537;-43
2021/04/10 00:33:43;;;;;;;12.27;7.22;;;6.00;99.90;;;;;;12360038;28;20046;-42
2021/04/10 00:39:44;;;;;;;12.35;6.93;;;6.00;99.90;;;;;;12356889;28;20053;-42
2021/04/10 00:45:46;;;;;;;14.32;6.53;;;6.00;99.90;;;;;;12369260;28;20054;-42
2021/04/10 00:51:47;;;;;;;17.90;8.18;;;6.00;99.90;;;;;;12369450;28;20050;-43
2021/04/10 00:57:48;;;;;;;15.95;8.05;;;6.00;99.90;;;;;;12375639;28;20049;-42
2021/04/10 01:03:51;;;;;;;15.23;7.45;;;6.00;99.90;;;;;;12368015;28;20071;-42
2021/04/10 01:09:53;;;;;;;15.27;7.35;;;6.00;99.90;;;;;;12366727;28;20050;-42
2021/04/10 01:16:13;;;;;;;15.38;6.40;;;5.90;99.90;;;;;;12364808;28;20052;-42
2021/04/10 01:22:47;;;;;;;12.65;7.22;;;6.00;99.90;;;;;;12359603;28;20054;-42
2021/04/10 01:28:57;;;;;;;17.02;7.55;;;6.00;99.90;;;;;;12363893;28;20052;-42
2021/04/10 01:35:05;;;;;;;15.63;7.45;;;5.90;99.90;;;;;;12370987;28;20557;-42
2021/04/10 01:41:08;;;;;;;26.30;8.98;;;5.90;99.90;;;;;;12363980;28;20410;-42
2021/04/10 01:47:14;;;;;;;16.83;8.02;;;5.90;99.90;;;;;;12373509;28;20104;-42
2021/04/10 01:53:16;;;;;;;17.88;8.25;;;5.90;99.90;;;;;;12367611;28;20546;-44
2021/04/10 01:59:18;;;;;;;18.13;8.13;;;5.90;99.90;;;;;;12367532;28;20548;-44
2021/04/10 02:05:20;;;;;;;16.45;7.97;;;6.00;99.90;;;;;;12370670;28;20553;-43
2021/04/10 02:11:25;;;;;;;16.67;8.38;;;6.00;99.90;;;;;;12366518;28;20112;-43
2021/04/10 02:17:28;;;;;;;16.10;9.02;;;6.00;99.90;;;;;;12371585;28;20045;-43
2021/04/10 02:23:29;;;;;;;19.08;10.73;;;5.80;99.90;;;;;;12365102;28;20057;-43
2021/04/10 02:29:31;;;;;;;17.15;10.57;;;5.70;99.90;;;;;;12364605;28;20554;-42
2021/04/10 02:35:44;;;;;;;21.27;11.20;;;5.60;99.90;;;;;;12363029;28;20111;-42
2021/04/10 02:41:49;;;;;;;18.10;10.80;;;5.60;99.90;;;;;;12364241;28;20050;-42
2021/04/10 02:47:53;;;;;;;18.23;11.23;;;5.70;99.90;;;;;;12362566;28;20058;-42
2021/04/10 02:53:54;;;;;;;20.23;11.83;;;5.80;99.90;;;;;;12365117;28;20100;-42
2021/04/10 02:59:58;;;;;;;25.77;12.88;;;5.80;99.90;;;;;;12354646;28;20062;-42
2021/04/10 03:06:03;;;;;;;22.85;10.93;;;5.70;99.90;;;;;;12360917;28;20051;-43
2021/04/10 03:12:05;;;;;;;18.98;9.38;;;5.50;99.90;;;;;;12364588;28;20056;-42
2021/04/10 03:18:08;;;;;;;16.50;7.63;;;5.40;99.90;;;;;;12363634;28;21039;-42
2021/04/10 03:24:10;;;;;;;13.40;6.47;;;5.20;99.90;;;;;;12360325;28;20053;-42
2021/04/10 03:30:13;;;;;;;19.05;7.70;;;5.20;99.90;;;;;;12363014;28;20099;-42
2021/04/10 03:36:14;;;;;;;20.10;7.70;;;5.30;99.90;;;;;;12364223;28;20452;-42
2021/04/10 03:42:21;;;;;;;16.08;9.15;;;5.20;99.90;;;;;;12370319;28;20046;-42
2021/04/10 03:48:22;;;;;;;20.77;8.68;;;5.20;99.90;;;;;;12357542;28;20038;-42
2021/04/10 03:54:24;;;;;;;21.48;9.93;;;5.20;99.90;;;;;;12366924;28;20100;-42
2021/04/10 04:00:25;;;;;;;17.80;9.43;;;5.20;99.90;;;;;;12367242;28;20050;-43
2021/04/10 04:06:26;;;;;;;17.92;9.00;;;5.20;99.90;;;;;;12359311;28;20121;-45
2021/04/10 04:12:28;;;;;;;19.83;9.25;;;5.80;99.90;;;;;;12363594;28;20049;-44
2021/04/10 04:18:29;;;;;;;19.80;9.90;;;5.40;99.90;;;;;;12353800;28;20050;-42
2021/04/10 04:24:31;;;;;;;18.95;9.20;;;5.20;99.90;;;;;;12366359;28;20053;-42
2021/04/10 04:30:32;;;;;;;17.55;9.30;;;5.00;99.90;;;;;;12365215;28;20057;-42
2021/04/10 04:36:34;;;;;;;19.63;8.45;;;5.00;99.90;;;;;;12368622;28;20091;-42
2021/04/10 04:42:35;;;;;;;19.63;6.80;;;5.00;99.90;;;;;;12359654;28;20507;-43
2021/04/10 04:48:36;;;;;;;19.70;5.43;;;4.90;99.90;;;;;;12373730;28;20060;-42
2021/04/10 04:54:38;;;;;;;19.38;5.63;;;5.00;99.90;;;;;;12368544;28;20136;-42
2021/04/10 05:00:39;;;;;;;21.80;5.95;;;5.00;99.90;;;;;;12362855;28;20133;-43
2021/04/10 05:06:40;;;;;;;14.20;4.45;;;5.00;99.90;;;;;;12367296;28;20058;-42
2021/04/10 05:12:42;;;;;;;20.52;5.53;;;5.00;99.90;;;;;;12364694;28;20141;-42
2021/04/10 05:18:43;;;;;;;18.88;5.20;;;5.00;99.90;;;;;;12366269;28;20467;-42
2021/04/10 05:24:44;;;;;;;18.02;6.18;;;5.10;99.90;;;;;;12367172;28;20054;-42
2021/04/10 05:30:46;;;;;;;17.55;6.13;;;5.00;99.90;;;;;;12369698;28;20050;-44
2021/04/10 05:36:47;;;;;;;22.20;7.72;;;5.00;99.90;;;;;;12359001;28;20066;-42
2021/04/10 05:42:48;;;;;;;20.90;8.73;;;5.00;99.90;;;;;;12361389;28;20617;-42
2021/04/10 05:48:50;;;;;;;22.25;10.52;;;5.10;99.90;;;;;;12360971;28;20052;-42
2021/04/10 05:54:51;;;;;;;21.90;11.88;;;5.10;99.90;;;;;;12368164;28;20042;-43
2021/04/10 06:00:52;;;;;;;24.20;11.80;;;5.10;99.90;;;;;;12361390;28;20525;-42
2021/04/10 06:06:54;;;;;;;21.55;11.25;;;5.10;99.90;;;;;;12367455;28;20117;-42
2021/04/10 06:12:55;;;;;;;26.23;12.30;;;5.20;99.90;;;;;;12362141;28;20050;-43
2021/04/10 06:18:56;;;;;;;24.90;11.10;;;5.20;99.90;;;;;;12362746;28;20613;-44
2021/04/10 06:24:58;;;;;;;23.83;10.95;;;5.40;99.90;;;;;;12368009;28;20431;-42
2021/04/10 06:31:01;;;;;;;23.02;12.00;;;5.40;99.90;;;;;;12363997;28;20053;-42
2021/04/10 06:37:03;;;;;;;21.80;10.55;;;5.50;99.90;;;;;;12365040;28;20054;-43
2021/04/10 06:43:04;;;;;;;20.23;10.45;;;5.60;99.90;;;;;;12355024;28;20050;-42
2021/04/10 06:49:08;;;;;;;23.85;9.75;;;5.70;99.90;;;;;;12363015;28;20046;-42
2021/04/10 06:55:13;;;;;;;21.17;8.55;;;6.00;99.90;;;;;;12362426;28;20137;-43
2021/04/10 07:01:15;;;;;;;;;;;6.10;99.90;;;;;;12362247;28;20112;-45
2021/04/10 07:07:18;;;;;;;19.42;7.32;;;6.00;99.90;;;;;;12359344;28;19980;-42
2021/04/10 07:13:19;;;;;;;15.60;6.57;;;6.20;99.90;;;;;;12365524;28;20046;-42
2021/04/10 07:19:21;;;;;;;18.23;6.72;;;6.00;99.90;;;;;;12364367;28;20061;-44
2021/04/10 07:25:24;;;;;;;15.15;6.43;;;5.90;99.90;;;;;;12364503;28;20058;-42
2021/04/10 07:31:32;;;;;;;20.55;7.15;;;5.90;99.90;;;;;;12364729;28;20087;-42
2021/04/10 07:37:50;;;;;;;22.00;8.13;;;6.00;99.90;;;;;;12361548;28;20537;-43
2021/04/10 07:43:52;;;;;;;19.23;7.53;;;6.10;99.90;;;;;;12356231;28;20052;-43
2021/04/10 07:50:17;;;;;;;22.13;7.40;;;6.20;99.90;;;;;;12363490;28;20046;-43
2021/04/10 07:56:19;;;;;;;17.42;6.80;;;6.20;99.90;;;;;;12371827;28;20393;-45
2021/04/10 08:02:22;;;;;;;17.17;7.68;;;6.10;99.90;;;;;;12375524;28;20137;-42
2021/04/10 08:08:25;;;;;;;23.92;8.15;;;6.30;99.90;;;;;;12374286;28;20136;-44
2021/04/10 08:14:39;;;;;;;16.98;6.82;;;6.50;99.90;;;;;;12382789;28;20049;-42
2021/04/10 08:20:49;;;;;;;17.93;8.30;;;6.50;99.90;;;;;;12367262;28;20390;-44
2021/04/10 08:26:54;;;;;;;24.00;9.75;;;6.60;99.90;;;;;;12380650;28;20081;-44
2021/04/10 08:32:55;;;;;;;;;;;6.80;99.90;;;;;;12367305;28;20043;-42
2021/04/10 08:38:57;;;;;;;21.67;10.88;;;6.90;99.90;;;;;;12375324;28;20003;-42
2021/04/10 08:45:03;;;;;;;18.48;9.43;;;6.90;99.90;;;;;;12371037;28;20065;-42
2021/04/10 08:51:08;;;;;;;19.48;10.45;;;7.00;99.90;;;;;;12376142;28;20054;-43
2021/04/10 08:57:13;;;;;;;22.38;11.60;;;6.80;99.90;;;;;;12366003;28;20438;-43
2021/04/10 09:03:15;;;;;;;;;;;6.70;99.90;;;;;;12373928;28;20405;-43
2021/04/10 09:09:17;;;;;;;24.38;12.57;;;6.70;99.90;;;;;;12365839;28;19922;-42
2021/04/10 09:15:25;;;;;;;20.85;12.13;;;6.80;99.90;;;;;;12365654;28;20050;-43
2021/04/10 09:21:37;;;;;;;19.67;12.07;;;7.10;99.90;;;;;;12362705;28;20096;-43
2021/04/10 09:27:38;;;;;;;20.55;11.02;;;7.00;99.90;;;;;;12367328;28;20124;-45
2021/04/10 09:33:40;;;;;;;23.30;10.65;;;7.00;99.90;;;;;;12372764;28;20050;-44
2021/04/10 09:40:03;;;;;;;22.02;11.98;;;7.00;99.90;;;;;;12367136;28;20054;-43
2021/04/10 09:46:31;;;;;;;21.00;11.30;;;7.20;99.90;;;;;;12363165;28;20447;-42
2021/04/10 09:52:32;;;;;;;22.75;11.23;;;7.10;99.90;;;;;;12367017;28;20042;-43
2021/04/10 09:58:48;;;;;;;29.10;11.48;;;6.90;99.90;;;;;;12370772;28;20042;-43
2021/04/10 10:04:50;;;;;;;18.50;11.38;;;7.10;99.90;;;;;;12361397;28;20089;-42
2021/04/10 10:10:56;;;;;;;18.25;9.80;;;7.20;99.90;;;;;;12367282;28;20113;-43
2021/04/10 10:17:07;;;;;;;22.88;9.18;;;7.50;99.90;;;;;;12373207;28;20483;-43
2021/04/10 10:23:15;;;;;;;21.88;10.48;;;7.70;99.90;;;;;;12367580;28;20141;-44
2021/04/10 10:29:17;;;;;;;19.88;8.88;;;8.00;99.90;;;;;;12359418;28;20079;-44
2021/04/10 10:35:19;;;;;;;18.23;8.60;;;8.00;99.90;;;;;;12367084;28;20054;-43
2021/04/10 10:41:20;;;;;;;23.15;8.75;;;7.90;99.90;;;;;;12362832;28;20111;-42
2021/04/10 10:47:26;;;;;;;18.08;9.27;;;8.00;99.90;;;;;;12359368;28;20177;-43
2021/04/10 10:53:37;;;;;;;18.88;8.75;;;8.30;99.90;;;;;;12365946;28;20046;-44
2021/04/10 10:59:39;;;;;;;16.60;8.63;;;9.00;99.90;;;;;;12354062;28;20062;-43
2021/04/10 11:05:41;;;;;;;18.00;8.45;;;8.80;99.90;;;;;;12356011;28;20111;-43
2021/04/10 11:11:48;;;;;;;21.67;8.52;;;8.50;99.90;;;;;;12356329;28;20053;-43
2021/04/10 11:17:49;;;;;;;21.25;9.10;;;8.30;99.90;;;;;;12363424;28;20054;-45
2021/04/10 11:23:57;;;;;;;18.05;8.18;;;7.80;99.90;;;;;;12369043;28;20112;-42
2021/04/10 11:30:09;;;;;;;22.58;10.00;;;7.90;99.90;;;;;;12361985;28;20073;-43
2021/04/10 11:36:10;;;;;;;22.65;9.40;;;7.80;99.90;;;;;;12357525;28;20418;-43
2021/04/10 11:42:27;;;;;;;22.33;9.85;;;7.90;99.90;;;;;;12350470;28;20043;-43
2021/04/10 11:48:39;;;;;;;19.88;8.52;;;8.10;99.90;;;;;;12362877;28;20057;-44
2021/04/10 11:54:40;;;;;;;20.85;9.82;;;8.10;99.90;;;;;;12367895;28;20056;-42
2021/04/10 12:00:43;;;;;;;22.85;11.02;;;8.30;99.90;;;;;;12360161;28;20052;-44
2021/04/10 12:06:44;;;;;;;24.33;11.73;;;8.30;99.90;;;;;;12363007;28;20050;-42
2021/04/10 12:12:45;;;;;;;23.40;12.43;;;8.30;99.90;;;;;;12359962;28;20046;-42
2021/04/10 12:18:46;;;;;;;24.70;13.15;;;8.20;99.90;;;;;;12363680;28;20070;-43
2021/04/10 12:24:51;;;;;;;24.35;14.32;;;8.10;99.90;;;;;;12364374;28;20117;-42
2021/04/10 12:30:53;;;;;;;24.17;14.38;;;8.00;99.90;;;;;;12361750;28;20043;-42
2021/04/10 12:36:54;;;;;;;29.63;14.60;;;8.20;99.90;;;;;;12359235;28;20051;-43
2021/04/10 12:42:56;;;;;;;24.80;16.15;;;8.10;99.90;;;;;;12362093;28;20046;-43
2021/04/10 12:48:57;;;;;;;28.15;15.77;;;8.10;99.90;;;;;;12372839;28;20103;-43
2021/04/10 12:54:59;;;;;;;28.52;14.30;;;8.20;99.90;;;;;;12366283;28;20089;-43
2021/04/10 13:01:01;;;;;;;26.92;16.20;;;8.20;99.90;;;;;;12373124;28;20056;-44
2021/04/10 13:07:03;;;;;;;24.30;16.25;;;8.50;99.90;;;;;;12372859;28;20056;-44
2021/04/10 13:13:06;;;;;;;24.88;15.43;;;8.90;99.90;;;;;;12377495;28;20364;-42
2021/04/10 13:19:07;;;;;;;22.30;13.45;;;8.70;99.90;;;;;;12371539;28;20062;-42
2021/04/10 13:25:10;;;;;;;24.20;14.68;;;8.90;99.90;;;;;;12369602;28;20077;-43
2021/04/10 13:31:11;;;;;;;25.33;14.75;;;9.10;99.90;;;;;;12353736;28;20077;-43
2021/04/10 13:37:13;;;;;;;26.23;13.38;;;9.30;99.90;;;;;;12365906;28;20059;-42
2021/04/10 13:43:14;;;;;;;22.70;13.75;;;9.40;99.90;;;;;;12369641;28;20645;-43
2021/04/10 13:49:23;;;;;;;25.85;13.50;;;9.40;99.90;;;;;;12367310;28;20050;-43
2021/04/10 13:55:25;;;;;;;25.65;12.23;;;9.60;99.90;;;;;;12366902;28;20052;-43
2021/04/10 14:01:27;;;;;;;25.45;12.70;;;9.70;99.90;;;;;;12365910;28;20565;-42
2021/04/10 14:07:34;;;;;;;19.80;11.98;;;9.80;99.90;;;;;;12370269;28;20594;-44
2021/04/10 14:13:36;;;;;;;18.95;11.20;;;9.40;99.90;;;;;;12359617;28;20398;-42
2021/04/10 14:19:40;;;;;;;24.92;12.80;;;8.80;99.90;;;;;;12365916;28;20066;-42
2021/04/10 14:25:43;;;;;;;24.33;13.13;;;8.80;99.90;;;;;;12366419;28;20065;-42
2021/04/10 14:31:45;;;;;;;31.60;21.55;;;8.80;99.90;;;;;;12365858;28;20066;-42
2021/04/10 14:37:47;;;;;;;34.13;24.33;;;8.60;99.90;;;;;;12374130;28;20054;-44
2021/04/10 14:43:49;;;;;;;36.85;24.38;;;8.70;99.90;;;;;;12359856;28;20053;-42
2021/04/10 14:49:51;;;;;;;34.72;24.17;;;8.70;99.90;;;;;;12369551;28;20133;-42
2021/04/10 14:56:00;;;;;;;34.85;25.17;;;8.40;99.90;;;;;;12369700;28;20054;-43
2021/04/10 15:02:03;;;;;;;36.97;25.55;;;8.30;99.90;;;;;;12367308;28;20544;-44
2021/04/10 15:08:04;;;;;;;40.17;25.42;;;8.30;99.90;;;;;;12364471;28;20054;-44
2021/04/10 15:14:06;;;;;;;40.50;25.23;;;8.20;99.90;;;;;;12356304;28;20054;-43
2021/04/10 15:20:09;;;;;;;45.15;25.40;;;8.10;99.90;;;;;;12359913;28;20075;-43
2021/04/10 15:26:11;;;;;;;41.72;26.00;;;8.10;99.90;;;;;;12358982;28;20092;-42
2021/04/10 15:32:13;;;;;;;38.97;24.33;;;8.00;99.90;;;;;;12365640;28;20077;-44
2021/04/10 15:38:14;;;;;;;43.78;27.27;;;7.90;99.90;;;;;;12360304;28;20495;-42
2021/04/10 15:44:17;;;;;;;43.60;27.23;;;7.90;99.90;;;;;;12362781;28;20108;-43
2021/04/10 15:50:19;;;;;;;43.33;27.80;;;7.80;99.90;;;;;;12363687;28;20590;-42
2021/04/10 15:56:20;;;;;;;44.53;28.40;;;7.60;99.90;;;;;;12361762;28;20055;-42
2021/04/10 16:02:22;;;;;;;41.85;27.23;;;7.50;99.90;;;;;;12359859;28;20050;-43
2021/04/10 16:08:24;;;;;;;43.65;27.92;;;7.50;99.90;;;;;;12361980;28;20104;-43
2021/04/10 16:14:25;;;;;;;41.67;28.38;;;7.40;99.90;;;;;;12359003;28;20046;-44
2021/04/10 16:20:26;;;;;;;47.80;27.52;;;7.30;99.90;;;;;;12366526;28;20092;-43
2021/04/10 16:26:28;;;;;;;46.90;25.48;;;7.30;99.90;;;;;;12375442;28;20054;-43
2021/04/10 16:32:30;;;;;;;39.95;25.30;;;7.20;99.90;;;;;;12368523;28;20055;-42
2021/04/10 16:38:32;;;;;;;42.05;25.48;;;7.20;99.90;;;;;;12367688;28;21030;-43
2021/04/10 16:44:33;;;;;;;39.35;24.42;;;7.10;99.90;;;;;;12372403;28;20047;-43
2021/04/10 16:50:40;;;;;;;41.95;25.35;;;7.00;99.90;;;;;;12371551;28;20054;-43
2021/04/10 16:56:41;;;;;;;47.60;25.58;;;7.00;99.90;;;;;;12376867;28;20046;-44
2021/04/10 17:02:43;;;;;;;42.45;26.50;;;6.90;99.90;;;;;;12364088;28;20054;-43
2021/04/10 17:08:45;;;;;;;41.95;26.20;;;6.80;99.90;;;;;;12371936;28;20050;-42
2021/04/10 17:14:47;;;;;;;41.67;26.20;;;6.80;99.90;;;;;;12371384;28;20109;-43
2021/04/10 17:20:49;;;;;;;40.17;25.98;;;6.80;99.90;;;;;;12370772;28;20046;-42
2021/04/10 17:26:50;;;;;;;39.90;24.40;;;6.80;99.90;;;;;;12371556;28;20108;-42
2021/04/10 17:32:51;;;;;;;39.90;24.80;;;6.70;99.90;;;;;;12360790;28;20424;-43
2021/04/10 17:38:53;;;;;;;40.80;25.35;;;6.80;99.90;;;;;;12372707;28;20384;-42
2021/04/10 17:44:54;;;;;;;41.63;24.20;;;6.70;99.90;;;;;;12365954;28;20050;-42
2021/04/10 17:50:56;;;;;;;43.13;26.23;;;6.70;99.90;;;;;;12369544;28;20629;-43
2021/04/10 17:56:57;;;;;;;38.00;25.27;;;6.70;99.90;;;;;;12368068;28;20146;-44
2021/04/10 18:02:59;;;;;;;38.08;24.95;;;6.60;99.90;;;;;;12363370;28;20104;-44
2021/04/10 18:09:01;;;;;;;45.47;26.70;;;6.60;99.90;;;;;;12362094;28;20058;-42
2021/04/10 18:15:05;;;;;;;41.53;26.13;;;6.60;99.90;;;;;;12366507;28;20329;-43
2021/04/10 18:21:07;;;;;;;37.10;26.20;;;6.60;99.90;;;;;;12363080;28;20459;-42
2021/04/10 18:27:08;;;;;;;44.83;26.67;;;6.60;99.90;;;;;;12361041;28;20054;-43
2021/04/10 18:33:15;;;;;;;44.63;27.33;;;6.60;99.90;;;;;;12358507;28;20060;-43
2021/04/10 18:39:18;;;;;;;45.47;26.95;;;6.60;99.90;;;;;;12350517;28;20057;-44
2021/04/10 18:45:20;;;;;;;41.45;26.35;;;6.60;99.90;;;;;;12358795;28;20050;-43
2021/04/10 18:51:25;;;;;;;45.22;29.15;;;6.60;99.90;;;;;;12368806;28;20502;-43
2021/04/10 18:57:48;;;;;;;44.55;28.45;;;6.60;99.90;;;;;;12366459;28;20927;-43
2021/04/10 19:03:49;;;;;;;42.97;28.42;;;6.70;99.90;;;;;;12361887;28;20157;-43
2021/04/10 19:09:51;;;;;;;40.65;27.90;;;6.70;99.90;;;;;;12366346;28;20053;-43
2021/04/10 19:15:52;;;;;;;41.72;28.35;;;6.80;99.90;;;;;;12358930;28;20039;-44
2021/04/10 19:21:54;;;;;;;37.33;25.58;;;6.80;99.90;;;;;;12350454;28;20439;-46
2021/04/10 19:27:55;;;;;;;37.58;26.55;;;6.80;99.90;;;;;;12363173;28;20096;-45
2021/04/10 19:33:57;;;;;;;41.92;26.55;;;6.80;99.90;;;;;;12355089;28;20506;-44
2021/04/10 19:39:58;;;;;;;42.22;26.67;;;6.80;99.90;;;;;;12353003;28;20064;-44
2021/04/10 19:46:08;;;;;;;35.00;24.30;;;6.80;99.90;;;;;;12360598;28;20141;-45
2021/04/10 19:52:11;;;;;;;36.58;24.55;;;6.90;99.90;;;;;;12359421;28;20050;-43
2021/04/10 19:58:32;;;;;;;38.50;25.80;;;6.90;99.90;;;;;;12355253;28;20127;-44
2021/04/10 20:04:33;;;;;;;37.25;24.67;;;6.90;99.90;;;;;;12364178;28;20046;-44
2021/04/10 20:10:38;;;;;;;33.58;22.48;;;6.90;99.90;;;;;;12354206;28;20081;-43
2021/04/10 20:16:39;;;;;;;34.05;21.05;;;7.00;99.90;;;;;;12357081;28;20061;-43
2021/04/10 20:22:41;;;;;;;28.65;20.13;;;7.00;99.90;;;;;;12337167;28;606234;-43
2021/04/10 20:28:43;;;;;;;23.42;16.67;;;7.10;99.90;;;;;;12364143;28;20038;-43
2021/04/10 20:34:45;;;;;;;23.85;16.17;;;7.30;99.90;;;;;;12357511;28;20390;-43
2021/04/10 20:40:46;;;;;;;22.98;16.00;;;7.50;99.90;;;;;;12361508;28;20517;-42
2021/04/10 20:46:48;;;;;;;19.33;14.40;;;7.60;99.90;;;;;;12361710;28;20105;-44
2021/04/10 20:52:52;;;;;;;20.23;15.23;;;7.70;99.90;;;;;;12361159;28;20050;-44
2021/04/10 20:58:53;;;;;;;20.33;15.27;;;7.70;99.90;;;;;;12367897;28;20140;-43
2021/04/10 21:04:58;;;;;;;19.15;14.93;;;7.80;99.90;;;;;;12362319;28;20410;-43
2021/04/10 21:11:00;;;;;;;21.42;16.77;;;7.80;99.90;;;;;;12367428;28;20157;-43
2021/04/10 21:17:02;;;;;;;21.73;16.67;;;7.80;99.90;;;;;;12363738;28;20058;-43
2021/04/10 21:23:05;;;;;;;21.60;16.20;;;7.80;99.90;;;;;;12364848;28;20138;-43
2021/04/10 21:29:06;;;;;;;22.95;16.67;;;7.90;99.90;;;;;;12373173;28;20706;-43
2021/04/10 21:35:08;;;;;;;26.00;17.85;;;7.90;99.90;;;;;;12368988;28;20458;-44
2021/04/10 21:41:12;;;;;;;24.75;18.90;;;7.90;99.90;;;;;;12370051;28;20044;-45
2021/04/10 21:47:13;;;;;;;22.38;16.92;;;7.90;99.90;;;;;;12369440;28;20445;-43
2021/04/10 21:53:15;;;;;;;29.88;19.42;;;8.00;99.90;;;;;;12367631;28;20050;-44
2021/04/10 21:59:16;;;;;;;25.17;18.23;;;8.00;99.90;;;;;;12367590;28;20050;-43
2021/04/10 22:05:18;;;;;;;27.02;18.45;;;8.10;99.90;;;;;;12371019;28;20150;-43
2021/04/10 22:11:22;;;;;;;20.17;16.88;;;8.10;99.90;;;;;;12363838;28;20058;-43
2021/04/10 22:17:23;;;;;;;22.25;17.73;;;8.10;99.90;;;;;;12367253;28;20046;-43
2021/04/10 22:23:25;;;;;;;26.90;18.67;;;8.20;99.90;;;;;;12367938;28;20096;-45
2021/04/10 22:29:26;;;;;;;25.48;18.70;;;8.20;99.90;;;;;;12369511;28;20050;-44
2021/04/10 22:35:31;;;;;;;23.55;17.95;;;8.30;99.90;;;;;;12362269;28;20054;-43
2021/04/10 22:41:33;;;;;;;21.95;18.45;;;8.30;99.90;;;;;;12364128;28;20054;-44
2021/04/10 22:47:35;;;;;;;26.45;17.90;;;8.40;99.90;;;;;;12370217;28;20181;-43
2021/04/10 22:53:38;;;;;;;22.70;17.15;;;8.40;99.90;;;;;;12370113;28;20092;-44
2021/04/10 22:59:43;;;;;;;23.67;16.95;;;8.50;99.90;;;;;;12369741;28;20062;-44
2021/04/10 23:05:45;;;;;;;23.40;17.08;;;8.50;99.90;;;;;;12368068;28;20054;-44
2021/04/10 23:11:46;;;;;;;27.73;17.58;;;8.50;99.90;;;;;;12362841;28;20128;-43
2021/04/10 23:17:48;;;;;;;21.85;16.60;;;8.50;99.90;;;;;;12370991;28;20093;-45
2021/04/10 23:23:50;;;;;;;21.73;16.52;;;8.60;99.90;;;;;;12363253;28;20088;-44
2021/04/10 23:29:52;;;;;;;20.20;15.73;;;8.60;99.90;;;;;;12356500;28;20046;-45
2021/04/10 23:35:55;;;;;;;20.58;16.25;;;8.60;99.90;;;;;;12362119;28;20046;-44
2021/04/10 23:41:59;;;;;;;18.90;14.70;;;8.60;99.90;;;;;;12368005;28;20042;-43
2021/04/10 23:48:01;;;;;;;20.50;14.80;;;8.60;99.90;;;;;;12369046;28;21026;-43
2021/04/10 23:54:02;;;;;;;20.58;15.57;;;8.60;99.90;;;;;;12370083;28;20115;-43
